sensor_id;sensor_type;location;lat;lon;timestamp;temperature;humidity
4727;DHT22;2377;51.734;8.950;2022-09-17T00:01:28;10.70;99.90
4727;DHT22;2377;51.734;8.950;2022-09-17T00:03:58;10.80;99.90
4727;DHT22;2377;51.734;8.950;2022-09-17T00:06:29;10.90;99.90
4727;DHT22;2377;51.734;8.950;2022-09-17T00:08:57;10.80;99.90
4727;DHT22;2377;51.734;8.950;2022-09-17T00:11:27;10.90;99.90
4727;DHT22;2377;51.734;8.950;2022-09-17T00:13:59;10.90;99.90
4727;DHT22;2377;51.734;8.950;2022-09-17T00:16:30;10.90;1.00
4727;DHT22;2377;51.734;8.950;2022-09-17T00:18:59;10.80;99.90
4727;DHT22;2377;51.734;8.950;2022-09-17T00:21:28;10.90;99.90
4727;DHT22;2377;51.734;8.950;2022-09-17T00:23:56;10.80;99.90
4727;DHT22;2377;51.734;8.950;2022-09-17T00:26:25;10.80;99.90
4727;DHT22;2377;51.734;8.950;2022-09-17T00:28:54;10.80;99.90
4727;DHT22;2377;51.734;8.950;2022-09-17T00:31:25;10.90;99.90
4727;DHT22;2377;51.734;8.950;2022-09-17T00:33:53;11.00;99.90
4727;DHT22;2377;51.734;8.950;2022-09-17T00:36:21;10.90;99.90
4727;DHT22;2377;51.734;8.950;2022-09-17T00:38:49;10.80;99.90
4727;DHT22;2377;51.734;8.950;2022-09-17T00:41:17;10.80;99.90
4727;DHT22;2377;51.734;8.950;2022-09-17T00:43:47;10.80;99.90
4727;DHT22;2377;51.734;8.950;2022-09-17T00:46:30;10.80;99.90
4727;DHT22;2377;51.734;8.950;2022-09-17T00:49:04;10.80;99.90
4727;DHT22;2377;51.734;8.950;2022-09-17T00:51:39;10.80;99.90
4727;DHT22;2377;51.734;8.950;2022-09-17T00:54:11;10.80;99.90
4727;DHT22;2377;51.734;8.950;2022-09-17T00:56:39;10.80;99.90
4727;DHT22;2377;51.734;8.950;2022-09-17T00:59:08;10.80;99.90
4727;DHT22;2377;51.734;8.950;2022-09-17T01:01:37;10.90;99.90
4727;DHT22;2377;51.734;8.950;2022-09-17T01:04:04;10.90;99.90
4727;DHT22;2377;51.734;8.950;2022-09-17T01:06:36;10.80;99.90
4727;DHT22;2377;51.734;8.950;2022-09-17T01:09:24;10.80;99.90
4727;DHT22;2377;51.734;8.950;2022-09-17T01:12:16;10.80;99.90
4727;DHT22;2377;51.734;8.950;2022-09-17T01:15:08;10.80;99.90
4727;DHT22;2377;51.734;8.950;2022-09-17T01:18:00;10.90;99.90
4727;DHT22;2377;51.734;8.950;2022-09-17T01:21:04;10.80;99.90
4727;DHT22;2377;51.734;8.950;2022-09-17T01:30:37;11.00;99.90
4727;DHT22;2377;51.734;8.950;2022-09-17T01:33:25;10.90;99.90
4727;DHT22;2377;51.734;8.950;2022-09-17T01:36:09;10.90;99.90
4727;DHT22;2377;51.734;8.950;2022-09-17T01:38:51;11.00;99.90
4727;DHT22;2377;51.734;8.950;2022-09-17T01:41:30;10.90;99.90
4727;DHT22;2377;51.734;8.950;2022-09-17T01:44:09;10.90;99.90
4727;DHT22;2377;51.734;8.950;2022-09-17T01:46:44;10.90;99.90
4727;DHT22;2377;51.734;8.950;2022-09-17T01:49:16;10.90;99.90
4727;DHT22;2377;51.734;8.950;2022-09-17T01:51:47;10.90;99.90
4727;DHT22;2377;51.734;8.950;2022-09-17T01:54:21;10.90;99.90
4727;DHT22;2377;51.734;8.950;2022-09-17T01:56:55;10.90;99.90
4727;DHT22;2377;51.734;8.950;2022-09-17T01:59:30;10.90;99.90
4727;DHT22;2377;51.734;8.950;2022-09-17T02:02:06;11.00;99.90
4727;DHT22;2377;51.734;8.950;2022-09-17T02:04:42;11.00;99.90
4727;DHT22;2377;51.734;8.950;2022-09-17T02:07:17;11.00;99.90
4727;DHT22;2377;51.734;8.950;2022-09-17T02:09:51;10.90;99.90
4727;DHT22;2377;51.734;8.950;2022-09-17T02:12:30;10.90;99.90
4727;DHT22;2377;51.734;8.950;2022-09-17T02:15:04;10.90;99.90
4727;DHT22;2377;51.734;8.950;2022-09-17T02:17:40;11.00;99.90
4727;DHT22;2377;51.734;8.950;2022-09-17T02:20:15;11.00;99.90
4727;DHT22;2377;51.734;8.950;2022-09-17T02:22:48;10.90;99.90
4727;DHT22;2377;51.734;8.950;2022-09-17T02:25:24;10.80;99.90
4727;DHT22;2377;51.734;8.950;2022-09-17T02:28:01;10.80;99.90
4727;DHT22;2377;51.734;8.950;2022-09-17T02:30:31;10.80;99.90
4727;DHT22;2377;51.734;8.950;2022-09-17T02:33:00;10.90;99.90
4727;DHT22;2377;51.734;8.950;2022-09-17T02:35:31;10.90;99.90
4727;DHT22;2377;51.734;8.950;2022-09-17T02:37:59;10.90;99.90
4727;DHT22;2377;51.734;8.950;2022-09-17T02:40:28;10.80;99.90
4727;DHT22;2377;51.734;8.950;2022-09-17T02:43:08;10.80;99.90
4727;DHT22;2377;51.734;8.950;2022-09-17T02:45:48;10.70;99.90
4727;DHT22;2377;51.734;8.950;2022-09-17T02:48:44;10.80;99.90
4727;DHT22;2377;51.734;8.950;2022-09-17T02:51:37;10.70;99.90
4727;DHT22;2377;51.734;8.950;2022-09-17T02:54:21;10.70;99.90
4727;DHT22;2377;51.734;8.950;2022-09-17T02:57:04;10.80;99.90
4727;DHT22;2377;51.734;8.950;2022-09-17T02:59:45;10.80;99.90
4727;DHT22;2377;51.734;8.950;2022-09-17T03:02:21;10.70;99.90
4727;DHT22;2377;51.734;8.950;2022-09-17T03:04:53;10.60;99.90
4727;DHT22;2377;51.734;8.950;2022-09-17T03:07:22;10.60;99.90
4727;DHT22;2377;51.734;8.950;2022-09-17T03:09:51;10.60;99.90
4727;DHT22;2377;51.734;8.950;2022-09-17T03:12:18;10.60;99.90
4727;DHT22;2377;51.734;8.950;2022-09-17T03:14:45;10.60;99.90
4727;DHT22;2377;51.734;8.950;2022-09-17T03:17:12;10.60;99.90
4727;DHT22;2377;51.734;8.950;2022-09-17T03:19:39;10.50;99.90
4727;DHT22;2377;51.734;8.950;2022-09-17T03:22:08;10.60;99.90
4727;DHT22;2377;51.734;8.950;2022-09-17T03:24:35;10.60;99.90
4727;DHT22;2377;51.734;8.950;2022-09-17T03:27:02;10.50;99.90
4727;DHT22;2377;51.734;8.950;2022-09-17T03:29:30;10.60;99.90
4727;DHT22;2377;51.734;8.950;2022-09-17T03:31:57;10.50;99.90
4727;DHT22;2377;51.734;8.950;2022-09-17T03:34:25;10.50;99.90
4727;DHT22;2377;51.734;8.950;2022-09-17T03:36:52;10.50;99.90
4727;DHT22;2377;51.734;8.950;2022-09-17T03:39:20;10.50;99.90
4727;DHT22;2377;51.734;8.950;2022-09-17T03:41:47;10.50;99.90
4727;DHT22;2377;51.734;8.950;2022-09-17T03:44:14;10.50;99.90
4727;DHT22;2377;51.734;8.950;2022-09-17T03:46:43;10.50;99.90
4727;DHT22;2377;51.734;8.950;2022-09-17T03:49:10;10.40;99.90
4727;DHT22;2377;51.734;8.950;2022-09-17T03:51:37;10.40;99.90
4727;DHT22;2377;51.734;8.950;2022-09-17T03:54:05;10.30;99.90
4727;DHT22;2377;51.734;8.950;2022-09-17T03:56:33;10.30;99.90
4727;DHT22;2377;51.734;8.950;2022-09-17T03:59:01;10.30;99.90
4727;DHT22;2377;51.734;8.950;2022-09-17T04:01:28;10.30;99.90
4727;DHT22;2377;51.734;8.950;2022-09-17T04:03:55;10.20;99.90
4727;DHT22;2377;51.734;8.950;2022-09-17T04:06:23;10.30;99.90
4727;DHT22;2377;51.734;8.950;2022-09-17T04:08:50;10.30;99.90
4727;DHT22;2377;51.734;8.950;2022-09-17T04:11:17;10.30;99.90
4727;DHT22;2377;51.734;8.950;2022-09-17T04:13:46;10.20;99.90
4727;DHT22;2377;51.734;8.950;2022-09-17T04:16:13;10.20;99.90
4727;DHT22;2377;51.734;8.950;2022-09-17T04:18:40;10.20;99.90
4727;DHT22;2377;51.734;8.950;2022-09-17T04:21:07;10.20;99.90
4727;DHT22;2377;51.734;8.950;2022-09-17T04:23:34;10.10;99.90
4727;DHT22;2377;51.734;8.950;2022-09-17T04:26:02;10.10;99.90
4727;DHT22;2377;51.734;8.950;2022-09-17T04:28:29;10.10;99.90
4727;DHT22;2377;51.734;8.950;2022-09-17T04:30:57;10.10;99.90
4727;DHT22;2377;51.734;8.950;2022-09-17T04:33:24;10.20;99.90
4727;DHT22;2377;51.734;8.950;2022-09-17T04:35:52;10.10;99.90
4727;DHT22;2377;51.734;8.950;2022-09-17T04:38:19;10.10;99.90
4727;DHT22;2377;51.734;8.950;2022-09-17T04:40:47;10.10;99.90
4727;DHT22;2377;51.734;8.950;2022-09-17T04:43:14;10.10;99.90
4727;DHT22;2377;51.734;8.950;2022-09-17T04:45:44;10.10;99.90
4727;DHT22;2377;51.734;8.950;2022-09-17T04:48:13;10.10;99.90
4727;DHT22;2377;51.734;8.950;2022-09-17T04:50:40;10.10;99.90
4727;DHT22;2377;51.734;8.950;2022-09-17T04:53:07;10.10;99.90
4727;DHT22;2377;51.734;8.950;2022-09-17T04:55:34;10.10;99.90
4727;DHT22;2377;51.734;8.950;2022-09-17T04:58:01;10.10;99.90
4727;DHT22;2377;51.734;8.950;2022-09-17T05:00:29;10.00;99.90
4727;DHT22;2377;51.734;8.950;2022-09-17T05:02:56;10.00;99.90
4727;DHT22;2377;51.734;8.950;2022-09-17T05:05:24;10.10;99.90
4727;DHT22;2377;51.734;8.950;2022-09-17T05:07:52;10.00;99.90
4727;DHT22;2377;51.734;8.950;2022-09-17T05:10:20;10.00;99.90
4727;DHT22;2377;51.734;8.950;2022-09-17T05:12:49;10.00;99.90
4727;DHT22;2377;51.734;8.950;2022-09-17T05:15:17;10.00;99.90
4727;DHT22;2377;51.734;8.950;2022-09-17T05:17:44;9.90;99.90
4727;DHT22;2377;51.734;8.950;2022-09-17T05:20:12;9.90;99.90
4727;DHT22;2377;51.734;8.950;2022-09-17T05:22:43;9.90;99.90
4727;DHT22;2377;51.734;8.950;2022-09-17T05:25:10;10.00;99.90
4727;DHT22;2377;51.734;8.950;2022-09-17T05:27:38;10.00;99.90
4727;DHT22;2377;51.734;8.950;2022-09-17T05:30:08;10.00;99.90
4727;DHT22;2377;51.734;8.950;2022-09-17T05:32:36;10.00;99.90
4727;DHT22;2377;51.734;8.950;2022-09-17T05:35:06;10.00;99.90
4727;DHT22;2377;51.734;8.950;2022-09-17T05:37:35;10.00;99.90
4727;DHT22;2377;51.734;8.950;2022-09-17T05:40:06;9.90;99.90
4727;DHT22;2377;51.734;8.950;2022-09-17T05:42:34;9.90;99.90
4727;DHT22;2377;51.734;8.950;2022-09-17T05:45:02;10.00;99.90
4727;DHT22;2377;51.734;8.950;2022-09-17T05:47:30;9.90;99.90
4727;DHT22;2377;51.734;8.950;2022-09-17T05:49:57;9.90;99.90
4727;DHT22;2377;51.734;8.950;2022-09-17T05:52:26;10.00;99.90
4727;DHT22;2377;51.734;8.950;2022-09-17T05:54:54;10.00;99.90
4727;DHT22;2377;51.734;8.950;2022-09-17T05:57:22;10.00;99.90
4727;DHT22;2377;51.734;8.950;2022-09-17T05:59:49;10.00;99.90
4727;DHT22;2377;51.734;8.950;2022-09-17T06:02:16;10.00;99.90
4727;DHT22;2377;51.734;8.950;2022-09-17T06:04:44;9.90;99.90
4727;DHT22;2377;51.734;8.950;2022-09-17T06:07:11;10.00;99.90
4727;DHT22;2377;51.734;8.950;2022-09-17T06:09:38;9.90;99.90
4727;DHT22;2377;51.734;8.950;2022-09-17T06:12:06;9.90;99.90
4727;DHT22;2377;51.734;8.950;2022-09-17T06:14:35;9.90;99.90
4727;DHT22;2377;51.734;8.950;2022-09-17T06:17:02;10.00;99.90
4727;DHT22;2377;51.734;8.950;2022-09-17T06:19:29;10.00;99.90
4727;DHT22;2377;51.734;8.950;2022-09-17T06:21:57;9.90;99.90
4727;DHT22;2377;51.734;8.950;2022-09-17T06:24:24;9.80;99.90
4727;DHT22;2377;51.734;8.950;2022-09-17T06:26:51;9.80;99.90
4727;DHT22;2377;51.734;8.950;2022-09-17T06:29:19;10.00;99.90
4727;DHT22;2377;51.734;8.950;2022-09-17T06:31:48;9.90;99.90
4727;DHT22;2377;51.734;8.950;2022-09-17T06:34:16;9.90;99.90
4727;DHT22;2377;51.734;8.950;2022-09-17T06:36:43;9.90;99.90
4727;DHT22;2377;51.734;8.950;2022-09-17T06:39:11;9.90;99.90
4727;DHT22;2377;51.734;8.950;2022-09-17T06:41:40;9.90;99.90
4727;DHT22;2377;51.734;8.950;2022-09-17T06:44:08;9.90;99.90
4727;DHT22;2377;51.734;8.950;2022-09-17T06:46:35;9.80;99.90
4727;DHT22;2377;51.734;8.950;2022-09-17T06:49:03;9.80;99.90
4727;DHT22;2377;51.734;8.950;2022-09-17T06:51:30;9.90;99.90
4727;DHT22;2377;51.734;8.950;2022-09-17T06:53:58;9.90;99.90
4727;DHT22;2377;51.734;8.950;2022-09-17T06:56:26;10.00;99.90
4727;DHT22;2377;51.734;8.950;2022-09-17T06:58:53;10.00;99.90
4727;DHT22;2377;51.734;8.950;2022-09-17T07:01:20;10.00;99.90
4727;DHT22;2377;51.734;8.950;2022-09-17T07:03:47;10.00;99.90
4727;DHT22;2377;51.734;8.950;2022-09-17T07:06:16;10.10;99.90
4727;DHT22;2377;51.734;8.950;2022-09-17T07:08:43;10.00;99.90
4727;DHT22;2377;51.734;8.950;2022-09-17T07:11:11;10.00;99.90
4727;DHT22;2377;51.734;8.950;2022-09-17T07:13:40;10.00;99.90
4727;DHT22;2377;51.734;8.950;2022-09-17T07:16:09;10.00;99.90
4727;DHT22;2377;51.734;8.950;2022-09-17T07:18:36;10.00;99.90
4727;DHT22;2377;51.734;8.950;2022-09-17T07:21:05;10.00;99.90
4727;DHT22;2377;51.734;8.950;2022-09-17T07:23:35;10.00;99.90
4727;DHT22;2377;51.734;8.950;2022-09-17T07:26:05;10.10;99.90
4727;DHT22;2377;51.734;8.950;2022-09-17T07:28:32;10.10;99.90
4727;DHT22;2377;51.734;8.950;2022-09-17T07:31:02;10.20;99.90
4727;DHT22;2377;51.734;8.950;2022-09-17T07:33:33;10.30;99.90
4727;DHT22;2377;51.734;8.950;2022-09-17T07:36:04;10.30;99.90
4727;DHT22;2377;51.734;8.950;2022-09-17T07:38:34;10.30;99.90
4727;DHT22;2377;51.734;8.950;2022-09-17T07:41:03;10.30;99.90
4727;DHT22;2377;51.734;8.950;2022-09-17T07:43:33;10.50;99.90
4727;DHT22;2377;51.734;8.950;2022-09-17T07:46:02;10.50;99.90
4727;DHT22;2377;51.734;8.950;2022-09-17T07:48:31;10.60;99.90
4727;DHT22;2377;51.734;8.950;2022-09-17T07:50:58;10.70;99.90
4727;DHT22;2377;51.734;8.950;2022-09-17T07:53:26;10.70;99.90
4727;DHT22;2377;51.734;8.950;2022-09-17T07:55:56;10.80;99.90
4727;DHT22;2377;51.734;8.950;2022-09-17T07:58:28;10.80;99.90
4727;DHT22;2377;51.734;8.950;2022-09-17T08:00:59;10.80;99.90
4727;DHT22;2377;51.734;8.950;2022-09-17T08:03:27;10.80;99.90
4727;DHT22;2377;51.734;8.950;2022-09-17T08:06:00;10.80;99.90
4727;DHT22;2377;51.734;8.950;2022-09-17T08:08:30;10.80;99.90
4727;DHT22;2377;51.734;8.950;2022-09-17T08:11:02;10.90;99.90
4727;DHT22;2377;51.734;8.950;2022-09-17T08:13:31;11.00;99.90
4727;DHT22;2377;51.734;8.950;2022-09-17T08:15:59;11.00;99.90
4727;DHT22;2377;51.734;8.950;2022-09-17T08:18:28;11.00;99.90
4727;DHT22;2377;51.734;8.950;2022-09-17T08:20:56;11.00;99.90
4727;DHT22;2377;51.734;8.950;2022-09-17T08:23:24;11.00;99.90
4727;DHT22;2377;51.734;8.950;2022-09-17T08:25:52;11.00;99.90
4727;DHT22;2377;51.734;8.950;2022-09-17T08:28:22;11.10;99.90
4727;DHT22;2377;51.734;8.950;2022-09-17T08:30:50;11.30;99.90
4727;DHT22;2377;51.734;8.950;2022-09-17T08:33:19;11.50;99.90
4727;DHT22;2377;51.734;8.950;2022-09-17T08:35:50;11.50;99.90
4727;DHT22;2377;51.734;8.950;2022-09-17T08:38:18;11.50;99.90
4727;DHT22;2377;51.734;8.950;2022-09-17T08:40:57;11.50;99.90
4727;DHT22;2377;51.734;8.950;2022-09-17T08:43:40;11.60;99.90
4727;DHT22;2377;51.734;8.950;2022-09-17T08:46:12;11.60;99.90
4727;DHT22;2377;51.734;8.950;2022-09-17T08:48:41;11.60;99.90
4727;DHT22;2377;51.734;8.950;2022-09-17T08:51:18;11.80;99.90
4727;DHT22;2377;51.734;8.950;2022-09-17T08:53:59;11.80;99.90
4727;DHT22;2377;51.734;8.950;2022-09-17T08:56:35;11.80;99.90
4727;DHT22;2377;51.734;8.950;2022-09-17T08:59:16;11.80;99.90
4727;DHT22;2377;51.734;8.950;2022-09-17T09:01:56;11.80;99.90
4727;DHT22;2377;51.734;8.950;2022-09-17T09:04:57;12.00;99.90
4727;DHT22;2377;51.734;8.950;2022-09-17T09:07:38;12.30;99.90
4727;DHT22;2377;51.734;8.950;2022-09-17T09:10:14;12.50;99.90
4727;DHT22;2377;51.734;8.950;2022-09-17T09:12:48;12.30;99.90
4727;DHT22;2377;51.734;8.950;2022-09-17T09:15:32;12.60;99.90
4727;DHT22;2377;51.734;8.950;2022-09-17T09:18:14;12.80;99.90
4727;DHT22;2377;51.734;8.950;2022-09-17T09:20:48;12.70;99.90
4727;DHT22;2377;51.734;8.950;2022-09-17T09:23:20;12.60;99.90
4727;DHT22;2377;51.734;8.950;2022-09-17T09:26:02;12.60;99.90
4727;DHT22;2377;51.734;8.950;2022-09-17T09:28:54;12.60;99.90
4727;DHT22;2377;51.734;8.950;2022-09-17T09:31:44;12.70;98.50
4727;DHT22;2377;51.734;8.950;2022-09-17T09:34:21;12.80;89.10
4727;DHT22;2377;51.734;8.950;2022-09-17T09:36:50;13.30;48.60
4727;DHT22;2377;51.734;8.950;2022-09-17T09:39:23;13.30;63.50
4727;DHT22;2377;51.734;8.950;2022-09-17T09:42:04;13.10;67.40
4727;DHT22;2377;51.734;8.950;2022-09-17T09:44:37;13.00;86.30
4727;DHT22;2377;51.734;8.950;2022-09-17T09:47:33;13.00;99.90
4727;DHT22;2377;51.734;8.950;2022-09-17T09:50:29;13.10;84.60
4727;DHT22;2377;51.734;8.950;2022-09-17T09:53:12;13.00;99.90
4727;DHT22;2377;51.734;8.950;2022-09-17T09:56:05;12.70;99.90
4727;DHT22;2377;51.734;8.950;2022-09-17T09:58:41;12.50;99.90
4727;DHT22;2377;51.734;8.950;2022-09-17T10:01:12;13.00;99.90
4727;DHT22;2377;51.734;8.950;2022-09-17T10:03:43;13.10;27.40
4727;DHT22;2377;51.734;8.950;2022-09-17T10:06:12;13.30;14.20
4727;DHT22;2377;51.734;8.950;2022-09-17T10:08:41;13.10;14.80
4727;DHT22;2377;51.734;8.950;2022-09-17T10:11:35;13.00;17.20
4727;DHT22;2377;51.734;8.950;2022-09-17T10:14:14;12.80;19.90
4727;DHT22;2377;51.734;8.950;2022-09-17T10:17:10;12.90;23.00
4727;DHT22;2377;51.734;8.950;2022-09-17T10:19:43;13.00;23.20
4727;DHT22;2377;51.734;8.950;2022-09-17T10:22:22;13.00;5.40
4727;DHT22;2377;51.734;8.950;2022-09-17T10:24:53;13.00;1.00
4727;DHT22;2377;51.734;8.950;2022-09-17T10:27:24;12.80;6.60
4727;DHT22;2377;51.734;8.950;2022-09-17T10:30:00;12.70;5.20
4727;DHT22;2377;51.734;8.950;2022-09-17T10:32:39;12.60;10.30
4727;DHT22;2377;51.734;8.950;2022-09-17T10:35:24;12.50;20.70
4727;DHT22;2377;51.734;8.950;2022-09-17T10:37:53;12.40;14.90
4727;DHT22;2377;51.734;8.950;2022-09-17T10:40:28;12.60;23.10
4727;DHT22;2377;51.734;8.950;2022-09-17T10:43:17;12.80;14.20
4727;DHT22;2377;51.734;8.950;2022-09-17T10:45:57;13.30;1.00
4727;DHT22;2377;51.734;8.950;2022-09-17T10:48:27;13.60;1.00
4727;DHT22;2377;51.734;8.950;2022-09-17T10:51:00;13.60;1.00
4727;DHT22;2377;51.734;8.950;2022-09-17T10:53:30;13.60;1.00
4727;DHT22;2377;51.734;8.950;2022-09-17T10:56:21;13.70;1.00
4727;DHT22;2377;51.734;8.950;2022-09-17T10:59:11;13.90;1.00
4727;DHT22;2377;51.734;8.950;2022-09-17T11:02:15;13.90;1.00
4727;DHT22;2377;51.734;8.950;2022-09-17T11:05:03;13.80;1.00
4727;DHT22;2377;51.734;8.950;2022-09-17T11:07:51;13.90;1.00
4727;DHT22;2377;51.734;8.950;2022-09-17T11:10:28;14.10;1.00
4727;DHT22;2377;51.734;8.950;2022-09-17T11:13:07;14.30;1.00
4727;DHT22;2377;51.734;8.950;2022-09-17T11:15:55;14.30;1.00
4727;DHT22;2377;51.734;8.950;2022-09-17T11:18:35;14.50;1.00
4727;DHT22;2377;51.734;8.950;2022-09-17T11:27:41;14.30;1.00
4727;DHT22;2377;51.734;8.950;2022-09-17T11:30:32;14.50;1.00
4727;DHT22;2377;51.734;8.950;2022-09-17T11:33:31;14.60;1.00
4727;DHT22;2377;51.734;8.950;2022-09-17T11:36:12;14.50;1.00
4727;DHT22;2377;51.734;8.950;2022-09-17T11:38:47;14.40;1.00
4727;DHT22;2377;51.734;8.950;2022-09-17T11:41:19;14.30;1.00
4727;DHT22;2377;51.734;8.950;2022-09-17T11:43:58;14.30;1.00
4727;DHT22;2377;51.734;8.950;2022-09-17T11:46:39;14.20;1.00
4727;DHT22;2377;51.734;8.950;2022-09-17T11:49:26;14.00;11.80
4727;DHT22;2377;51.734;8.950;2022-09-17T11:52:03;13.30;36.40
4727;DHT22;2377;51.734;8.950;2022-09-17T11:54:41;12.50;37.30
4727;DHT22;2377;51.734;8.950;2022-09-17T11:57:17;11.90;78.70
4727;DHT22;2377;51.734;8.950;2022-09-17T11:59:52;11.80;99.90
4727;DHT22;2377;51.734;8.950;2022-09-17T12:02:26;12.00;99.90
4727;DHT22;2377;51.734;8.950;2022-09-17T12:05:08;12.30;99.90
4727;DHT22;2377;51.734;8.950;2022-09-17T12:07:47;12.50;99.90
4727;DHT22;2377;51.734;8.950;2022-09-17T12:10:35;12.80;99.90
4727;DHT22;2377;51.734;8.950;2022-09-17T12:13:19;13.10;99.90
4727;DHT22;2377;51.734;8.950;2022-09-17T12:16:06;13.30;99.90
4727;DHT22;2377;51.734;8.950;2022-09-17T12:18:47;13.50;99.90
4727;DHT22;2377;51.734;8.950;2022-09-17T12:21:21;13.70;94.20
4727;DHT22;2377;51.734;8.950;2022-09-17T12:24:00;14.00;99.90
4727;DHT22;2377;51.734;8.950;2022-09-17T12:26:49;14.00;74.90
4727;DHT22;2377;51.734;8.950;2022-09-17T12:29:32;14.10;84.00
4727;DHT22;2377;51.734;8.950;2022-09-17T12:32:41;14.10;41.90
4727;DHT22;2377;51.734;8.950;2022-09-17T12:35:27;14.10;17.90
4727;DHT22;2377;51.734;8.950;2022-09-17T12:38:23;14.00;12.00
4727;DHT22;2377;51.734;8.950;2022-09-17T12:41:08;13.90;7.30
4727;DHT22;2377;51.734;8.950;2022-09-17T12:43:55;13.60;1.00
4727;DHT22;2377;51.734;8.950;2022-09-17T12:46:57;13.60;3.30
4727;DHT22;2377;51.734;8.950;2022-09-17T12:49:49;13.70;1.00
4727;DHT22;2377;51.734;8.950;2022-09-17T12:52:37;13.90;1.00
4727;DHT22;2377;51.734;8.950;2022-09-17T12:55:37;14.00;1.00
4727;DHT22;2377;51.734;8.950;2022-09-17T12:58:21;14.30;1.00
4727;DHT22;2377;51.734;8.950;2022-09-17T13:01:02;14.30;1.00
4727;DHT22;2377;51.734;8.950;2022-09-17T13:03:36;14.30;1.00
4727;DHT22;2377;51.734;8.950;2022-09-17T13:06:38;14.30;1.00
4727;DHT22;2377;51.734;8.950;2022-09-17T13:09:46;14.30;1.00
4727;DHT22;2377;51.734;8.950;2022-09-17T13:12:29;14.10;1.00
4727;DHT22;2377;51.734;8.950;2022-09-17T13:15:38;14.10;1.00
4727;DHT22;2377;51.734;8.950;2022-09-17T13:18:19;14.10;1.00
4727;DHT22;2377;51.734;8.950;2022-09-17T13:21:01;14.10;1.00
4727;DHT22;2377;51.734;8.950;2022-09-17T13:23:39;14.10;1.00
4727;DHT22;2377;51.734;8.950;2022-09-17T13:26:09;14.10;1.00
4727;DHT22;2377;51.734;8.950;2022-09-17T13:28:41;14.10;1.00
4727;DHT22;2377;51.734;8.950;2022-09-17T13:31:10;14.10;1.00
4727;DHT22;2377;51.734;8.950;2022-09-17T13:33:54;14.00;1.00
4727;DHT22;2377;51.734;8.950;2022-09-17T13:36:54;13.80;1.00
4727;DHT22;2377;51.734;8.950;2022-09-17T13:39:38;13.70;1.00
4727;DHT22;2377;51.734;8.950;2022-09-17T13:42:13;13.70;1.00
4727;DHT22;2377;51.734;8.950;2022-09-17T13:44:48;13.80;1.00
4727;DHT22;2377;51.734;8.950;2022-09-17T13:47:24;14.00;1.00
4727;DHT22;2377;51.734;8.950;2022-09-17T13:49:57;14.30;1.00
4727;DHT22;2377;51.734;8.950;2022-09-17T13:52:34;14.50;1.00
4727;DHT22;2377;51.734;8.950;2022-09-17T13:55:05;14.60;1.00
4727;DHT22;2377;51.734;8.950;2022-09-17T13:57:45;14.70;1.00
4727;DHT22;2377;51.734;8.950;2022-09-17T14:00:46;14.60;1.00
4727;DHT22;2377;51.734;8.950;2022-09-17T14:03:52;14.70;1.00
4727;DHT22;2377;51.734;8.950;2022-09-17T14:06:49;14.70;1.00
4727;DHT22;2377;51.734;8.950;2022-09-17T14:09:48;14.60;1.00
4727;DHT22;2377;51.734;8.950;2022-09-17T14:12:50;14.80;1.00
4727;DHT22;2377;51.734;8.950;2022-09-17T14:18:54;14.60;1.00
4727;DHT22;2377;51.734;8.950;2022-09-17T14:21:26;14.30;1.00
4727;DHT22;2377;51.734;8.950;2022-09-17T14:23:58;14.10;1.00
4727;DHT22;2377;51.734;8.950;2022-09-17T14:26:57;14.00;1.00
4727;DHT22;2377;51.734;8.950;2022-09-17T14:30:00;14.00;1.00
4727;DHT22;2377;51.734;8.950;2022-09-17T14:32:36;13.80;1.00
4727;DHT22;2377;51.734;8.950;2022-09-17T14:35:17;13.50;12.00
4727;DHT22;2377;51.734;8.950;2022-09-17T14:37:54;12.90;39.90
4727;DHT22;2377;51.734;8.950;2022-09-17T14:40:24;12.50;62.50
4727;DHT22;2377;51.734;8.950;2022-09-17T14:42:55;12.30;71.20
4727;DHT22;2377;51.734;8.950;2022-09-17T14:45:26;12.10;89.90
4727;DHT22;2377;51.734;8.950;2022-09-17T14:48:17;12.00;99.90
4727;DHT22;2377;51.734;8.950;2022-09-17T14:54:08;11.80;42.00
4727;DHT22;2377;51.734;8.950;2022-09-17T14:56:47;11.80;42.20
4727;DHT22;2377;51.734;8.950;2022-09-17T14:59:22;11.80;28.90
4727;DHT22;2377;51.734;8.950;2022-09-17T15:01:55;11.80;49.40
4727;DHT22;2377;51.734;8.950;2022-09-17T15:04:24;11.80;78.40
4727;DHT22;2377;51.734;8.950;2022-09-17T15:07:05;11.80;9.30
4727;DHT22;2377;51.734;8.950;2022-09-17T15:09:33;11.90;26.40
4727;DHT22;2377;51.734;8.950;2022-09-17T15:12:00;11.80;38.30
4727;DHT22;2377;51.734;8.950;2022-09-17T15:14:32;12.00;52.00
4727;DHT22;2377;51.734;8.950;2022-09-17T15:17:05;12.00;63.80
4727;DHT22;2377;51.734;8.950;2022-09-17T15:19:36;12.00;42.20
4727;DHT22;2377;51.734;8.950;2022-09-17T15:22:07;12.00;29.20
4727;DHT22;2377;51.734;8.950;2022-09-17T15:24:39;12.10;47.70
4727;DHT22;2377;51.734;8.950;2022-09-17T15:27:12;12.10;78.10
4727;DHT22;2377;51.734;8.950;2022-09-17T15:29:49;12.10;81.30
4727;DHT22;2377;51.734;8.950;2022-09-17T15:32:19;12.20;71.30
4727;DHT22;2377;51.734;8.950;2022-09-17T15:35:18;12.30;40.40
4727;DHT22;2377;51.734;8.950;2022-09-17T15:37:51;12.30;52.70
4727;DHT22;2377;51.734;8.950;2022-09-17T15:40:27;12.30;68.90
4727;DHT22;2377;51.734;8.950;2022-09-17T15:43:03;12.30;57.40
4727;DHT22;2377;51.734;8.950;2022-09-17T15:45:40;12.30;73.80
4727;DHT22;2377;51.734;8.950;2022-09-17T15:48:21;12.30;85.00
4727;DHT22;2377;51.734;8.950;2022-09-17T15:51:01;12.30;66.30
4727;DHT22;2377;51.734;8.950;2022-09-17T15:53:32;12.30;66.00
4727;DHT22;2377;51.734;8.950;2022-09-17T15:56:04;12.30;57.90
4727;DHT22;2377;51.734;8.950;2022-09-17T15:58:36;12.40;57.70
4727;DHT22;2377;51.734;8.950;2022-09-17T16:04:29;12.30;49.00
4727;DHT22;2377;51.734;8.950;2022-09-17T16:07:19;12.40;44.70
4727;DHT22;2377;51.734;8.950;2022-09-17T16:09:53;12.30;64.60
4727;DHT22;2377;51.734;8.950;2022-09-17T16:12:23;12.30;61.70
4727;DHT22;2377;51.734;8.950;2022-09-17T16:14:55;12.10;72.30
4727;DHT22;2377;51.734;8.950;2022-09-17T16:17:30;12.10;70.90
4727;DHT22;2377;51.734;8.950;2022-09-17T16:20:06;12.10;66.10
4727;DHT22;2377;51.734;8.950;2022-09-17T16:22:38;12.10;55.90
4727;DHT22;2377;51.734;8.950;2022-09-17T16:25:06;12.10;81.40
4727;DHT22;2377;51.734;8.950;2022-09-17T16:27:42;12.10;92.10
4727;DHT22;2377;51.734;8.950;2022-09-17T16:30:14;12.00;94.30
4727;DHT22;2377;51.734;8.950;2022-09-17T16:32:44;12.00;96.00
4727;DHT22;2377;51.734;8.950;2022-09-17T16:35:13;12.00;88.80
4727;DHT22;2377;51.734;8.950;2022-09-17T16:37:41;12.00;99.90
4727;DHT22;2377;51.734;8.950;2022-09-17T16:40:10;12.00;99.90
4727;DHT22;2377;51.734;8.950;2022-09-17T16:42:38;12.00;99.90
4727;DHT22;2377;51.734;8.950;2022-09-17T16:45:06;12.00;99.90
4727;DHT22;2377;51.734;8.950;2022-09-17T16:47:34;11.80;91.60
4727;DHT22;2377;51.734;8.950;2022-09-17T16:50:06;11.80;84.80
4727;DHT22;2377;51.734;8.950;2022-09-17T16:52:35;11.60;79.30
4727;DHT22;2377;51.734;8.950;2022-09-17T16:55:03;11.50;95.30
4727;DHT22;2377;51.734;8.950;2022-09-17T16:57:32;11.50;73.90
4727;DHT22;2377;51.734;8.950;2022-09-17T17:00:00;11.50;94.70
4727;DHT22;2377;51.734;8.950;2022-09-17T17:02:28;11.30;99.90
4727;DHT22;2377;51.734;8.950;2022-09-17T17:04:55;11.30;84.30
4727;DHT22;2377;51.734;8.950;2022-09-17T17:07:24;11.30;72.20
4727;DHT22;2377;51.734;8.950;2022-09-17T17:09:51;11.20;77.00
4727;DHT22;2377;51.734;8.950;2022-09-17T17:12:18;11.20;99.90
4727;DHT22;2377;51.734;8.950;2022-09-17T17:14:45;11.10;75.10
4727;DHT22;2377;51.734;8.950;2022-09-17T17:17:15;11.10;78.40